Time,TemperatureF,DewpointF,PressureIn,WindDirection,WindDirectionDegrees,WindSpeedMPH,WindSpeedGustMPH,Humidity,HourlyPrecipIn,Conditions,Clouds,dailyrainin,SoftwareType,DateUTC
2014-08-22 00:06:00,81.5,78.0,29.80,SW,223,6.0,11.0,88,0.12,,,0.12,weatherlink.com 1.10,2014-08-22 05:06:00,
2014-08-22 00:21:00,79.5,76.0,29.77,South,180,0.0,3.0,89,0.49,,,0.49,weatherlink.com 1.10,2014-08-22 05:21:00,
2014-08-22 00:36:00,77.8,76.0,29.76,South,181,0.0,2.0,93,0.49,,,0.49,weatherlink.com 1.10,2014-08-22 05:36:00,
2014-08-22 00:51:00,77.4,76.0,29.78,South,178,0.0,1.0,94,0.49,,,0.49,weatherlink.com 1.10,2014-08-22 05:51:00,
2014-08-22 01:07:00,77.2,75.0,29.79,South,178,0.0,0.0,94,0.34,,,0.49,weatherlink.com 1.10,2014-08-22 06:07:00,
2014-08-22 01:22:00,77.4,76.0,29.77,ESE,117,1.0,3.0,95,0.00,,,0.49,weatherlink.com 1.10,2014-08-22 06:22:00,
2014-08-22 01:37:00,77.4,76.0,29.77,East,83,0.0,0.0,95,0.00,,,0.49,weatherlink.com 1.10,2014-08-22 06:37:00,
2014-08-22 01:52:00,77.2,76.0,29.77,East,83,0.0,0.0,95,0.00,,,0.49,weatherlink.com 1.10,2014-08-22 06:52:00,
2014-08-22 02:07:00,77.1,76.0,29.77,East,83,0.0,0.0,96,0.00,,,0.49,weatherlink.com 1.10,2014-08-22 07:07:00,
2014-08-22 02:22:00,76.8,76.0,29.78,East,83,0.0,0.0,96,0.00,,,0.49,weatherlink.com 1.10,2014-08-22 07:22:00,
2014-08-22 02:37:00,76.6,75.0,29.79,East,83,0.0,2.0,96,0.00,,,0.49,weatherlink.com 1.10,2014-08-22 07:37:00,
2014-08-22 02:52:00,76.4,75.0,29.79,East,83,0.0,0.0,96,0.00,,,0.49,weatherlink.com 1.10,2014-08-22 07:52:00,
2014-08-22 03:07:00,75.8,74.0,29.79,East,83,0.0,1.0,95,0.00,,,0.49,weatherlink.com 1.10,2014-08-22 08:07:00,
2014-08-22 03:22:00,74.9,73.0,29.80,East,84,0.0,0.0,95,0.00,,,0.49,weatherlink.com 1.10,2014-08-22 08:22:00,
2014-08-22 03:37:00,74.3,73.0,29.81,East,84,0.0,0.0,95,0.00,,,0.49,weatherlink.com 1.10,2014-08-22 08:37:00,
2014-08-22 03:52:00,73.9,73.0,29.80,East,84,0.0,0.0,96,0.00,,,0.49,weatherlink.com 1.10,2014-08-22 08:52:00,
2014-08-22 04:07:00,73.6,72.0,29.80,East,84,0.0,0.0,96,0.00,,,0.49,weatherlink.com 1.10,2014-08-22 09:07:00,
2014-08-22 04:22:00,73.3,72.0,29.81,East,84,0.0,0.0,96,0.00,,,0.49,weatherlink.com 1.10,2014-08-22 09:22:00,
2014-08-22 04:37:00,73.1,72.0,29.80,East,84,0.0,0.0,96,0.00,,,0.49,weatherlink.com 1.10,2014-08-22 09:37:00,
2014-08-22 04:52:00,73.0,72.0,29.80,East,84,0.0,0.0,96,0.00,,,0.49,weatherlink.com 1.10,2014-08-22 09:52:00,
2014-08-22 05:07:00,73.0,72.0,29.80,East,84,0.0,0.0,96,0.00,,,0.49,weatherlink.com 1.10,2014-08-22 10:07:00,
2014-08-22 05:22:00,72.8,72.0,29.80,East,84,0.0,0.0,96,0.00,,,0.49,weatherlink.com 1.10,2014-08-22 10:22:00,
2014-08-22 05:37:00,72.7,72.0,29.80,East,84,0.0,0.0,96,0.00,,,0.49,weatherlink.com 1.10,2014-08-22 10:37:00,
2014-08-22 05:52:00,72.4,71.0,29.80,East,84,0.0,0.0,96,0.00,,,0.49,weatherlink.com 1.10,2014-08-22 10:52:00,
2014-08-22 06:07:00,72.2,71.0,29.80,East,84,0.0,0.0,96,0.00,,,0.49,weatherlink.com 1.10,2014-08-22 11:07:00,
2014-08-22 06:22:00,72.1,71.0,29.81,East,84,0.0,0.0,96,0.00,,,0.49,weatherlink.com 1.10,2014-08-22 11:22:00,
2014-08-22 06:37:00,72.0,71.0,29.81,East,83,0.0,0.0,96,0.00,,,0.49,weatherlink.com 1.10,2014-08-22 11:37:00,
2014-08-22 06:52:00,72.0,71.0,29.81,East,84,0.0,0.0,97,0.00,,,0.49,weatherlink.com 1.10,2014-08-22 11:52:00,
2014-08-22 07:07:00,72.2,71.0,29.81,East,84,0.0,0.0,97,0.00,,,0.49,weatherlink.com 1.10,2014-08-22 12:07:00,
2014-08-22 07:22:00,72.5,72.0,29.81,East,84,0.0,0.0,97,0.00,,,0.49,weatherlink.com 1.10,2014-08-22 12:22:00,
2014-08-22 07:37:00,73.1,72.0,29.81,East,84,0.0,0.0,97,0.00,,,0.49,weatherlink.com 1.10,2014-08-22 12:37:00,
2014-08-22 07:52:00,74.2,74.0,29.82,East,84,0.0,0.0,98,0.00,,,0.49,weatherlink.com 1.10,2014-08-22 12:52:00,
2014-08-22 08:07:00,75.4,75.0,29.82,East,84,0.0,0.0,98,0.00,,,0.49,weatherlink.com 1.10,2014-08-22 13:07:00,
2014-08-22 08:22:00,77.0,76.0,29.82,East,84,0.0,0.0,98,0.00,,,0.49,weatherlink.com 1.10,2014-08-22 13:22:00,
2014-08-22 08:37:00,77.9,77.0,29.82,East,86,0.0,0.0,98,0.00,,,0.49,weatherlink.com 1.10,2014-08-22 13:37:00,
2014-08-22 08:52:00,78.4,78.0,29.83,ESE,107,0.0,0.0,97,0.00,,,0.49,weatherlink.com 1.10,2014-08-22 13:52:00,
2014-08-22 09:07:00,79.3,77.0,29.83,ESE,113,0.0,0.0,93,0.00,,,0.49,weatherlink.com 1.10,2014-08-22 14:07:00,
2014-08-22 09:22:00,80.9,78.0,29.84,SE,129,0.0,0.0,90,0.00,,,0.49,weatherlink.com 1.10,2014-08-22 14:22:00,
2014-08-22 09:37:00,82.6,78.0,29.84,SE,126,0.0,0.0,87,0.00,,,0.49,weatherlink.com 1.10,2014-08-22 14:37:00,
2014-08-22 09:52:00,84.5,79.0,29.84,SE,126,0.0,0.0,83,0.00,,,0.49,weatherlink.com 1.10,2014-08-22 14:52:00,
2014-08-22 10:07:00,86.0,80.0,29.84,ESE,115,0.0,0.0,81,0.00,,,0.49,weatherlink.com 1.10,2014-08-22 15:07:00,
2014-08-22 10:22:00,87.2,80.0,29.84,ESE,116,0.0,0.0,78,0.00,,,0.49,weatherlink.com 1.10,2014-08-22 15:22:00,
2014-08-22 10:37:00,88.6,79.0,29.83,ESE,116,0.0,0.0,74,0.00,,,0.49,weatherlink.com 1.10,2014-08-22 15:37:00,
2014-08-22 10:53:00,89.4,80.0,29.83,SE,139,0.0,7.0,73,0.00,,,0.49,weatherlink.com 1.10,2014-08-22 15:53:00,
2014-08-22 11:08:00,89.6,79.0,29.83,SE,142,0.0,5.0,72,0.00,,,0.49,weatherlink.com 1.10,2014-08-22 16:08:00,